sensor_id;sensor_type;location;lat;lon;timestamp;pressure;altitude;pressure_sealevel;temperature;humidity
13407;BME280;6774;48.208;10.766;2023-05-23T00:00:36;95289.16;;;16.75;80.29
13407;BME280;6774;48.208;10.766;2023-05-23T00:03:04;95289.31;;;16.62;81.00
13407;BME280;6774;48.208;10.766;2023-05-23T00:05:33;95281.94;;;16.64;80.75
13407;BME280;6774;48.208;10.766;2023-05-23T00:08:01;95283.66;;;16.59;80.95
13407;BME280;6774;48.208;10.766;2023-05-23T00:10:29;95272.19;;;16.58;80.92
13407;BME280;6774;48.208;10.766;2023-05-23T00:12:57;95289.94;;;16.64;80.94
13407;BME280;6774;48.208;10.766;2023-05-23T00:15:24;95283.66;;;16.59;81.30
13407;BME280;6774;48.208;10.766;2023-05-23T00:17:52;95291.41;;;16.37;82.21
13407;BME280;6774;48.208;10.766;2023-05-23T00:20:20;95290.47;;;16.43;82.22
13407;BME280;6774;48.208;10.766;2023-05-23T00:22:49;95287.56;;;16.44;82.11
13407;BME280;6774;48.208;10.766;2023-05-23T00:25:18;95291.66;;;16.47;81.84
13407;BME280;6774;48.208;10.766;2023-05-23T00:27:47;95289.81;;;16.59;81.60
13407;BME280;6774;48.208;10.766;2023-05-23T00:30:15;95290.94;;;16.63;81.35
13407;BME280;6774;48.208;10.766;2023-05-23T00:32:43;95291.88;;;16.57;82.09
13407;BME280;6774;48.208;10.766;2023-05-23T00:35:11;95284.72;;;16.58;81.90
13407;BME280;6774;48.208;10.766;2023-05-23T00:37:39;95286.91;;;16.61;81.77
13407;BME280;6774;48.208;10.766;2023-05-23T00:40:09;95292.59;;;16.64;81.36
13407;BME280;6774;48.208;10.766;2023-05-23T00:42:37;95292.81;;;16.51;82.43
13407;BME280;6774;48.208;10.766;2023-05-23T00:45:06;95288.28;;;16.52;82.55
13407;BME280;6774;48.208;10.766;2023-05-23T00:47:34;95301.59;;;16.40;82.91
13407;BME280;6774;48.208;10.766;2023-05-23T00:50:02;95293.72;;;16.45;82.72
13407;BME280;6774;48.208;10.766;2023-05-23T00:52:30;95297.66;;;16.54;81.86
13407;BME280;6774;48.208;10.766;2023-05-23T00:54:58;95303.53;;;16.44;82.77
13407;BME280;6774;48.208;10.766;2023-05-23T00:57:27;95302.16;;;16.42;82.14
13407;BME280;6774;48.208;10.766;2023-05-23T00:59:55;95302.31;;;16.47;81.94
13407;BME280;6774;48.208;10.766;2023-05-23T01:02:23;95308.19;;;16.49;81.99
13407;BME280;6774;48.208;10.766;2023-05-23T01:04:51;95309.25;;;16.48;81.90
13407;BME280;6774;48.208;10.766;2023-05-23T01:07:20;95298.59;;;16.48;82.12
13407;BME280;6774;48.208;10.766;2023-05-23T01:09:48;95302.88;;;16.49;81.90
13407;BME280;6774;48.208;10.766;2023-05-23T01:12:23;95300.22;;;16.49;82.00
13407;BME280;6774;48.208;10.766;2023-05-23T01:14:58;95305.53;;;16.49;81.97
13407;BME280;6774;48.208;10.766;2023-05-23T01:17:38;95312.81;;;16.54;81.92
13407;BME280;6774;48.208;10.766;2023-05-23T01:20:11;95303.22;;;16.53;82.19
13407;BME280;6774;48.208;10.766;2023-05-23T01:25:52;95304.91;;;16.24;84.41
13407;BME280;6774;48.208;10.766;2023-05-23T01:28:31;95303.66;;;16.38;84.38
13407;BME280;6774;48.208;10.766;2023-05-23T01:31:02;95304.00;;;16.41;84.02
13407;BME280;6774;48.208;10.766;2023-05-23T01:33:31;95295.13;;;16.47;84.03
13407;BME280;6774;48.208;10.766;2023-05-23T01:36:00;95306.03;;;16.58;83.33
13407;BME280;6774;48.208;10.766;2023-05-23T01:38:29;95311.34;;;16.46;84.17
13407;BME280;6774;48.208;10.766;2023-05-23T01:40:58;95315.28;;;16.55;84.41
13407;BME280;6774;48.208;10.766;2023-05-23T01:43:27;95307.88;;;16.57;84.60
13407;BME280;6774;48.208;10.766;2023-05-23T01:45:56;95309.50;;;16.58;84.34
13407;BME280;6774;48.208;10.766;2023-05-23T01:48:25;95306.47;;;16.55;84.16
13407;BME280;6774;48.208;10.766;2023-05-23T01:50:54;95308.72;;;16.69;83.34
13407;BME280;6774;48.208;10.766;2023-05-23T01:53:24;95315.09;;;16.68;83.13
13407;BME280;6774;48.208;10.766;2023-05-23T01:55:53;95316.25;;;16.72;83.10
13407;BME280;6774;48.208;10.766;2023-05-23T01:58:22;95322.28;;;16.80;82.54
13407;BME280;6774;48.208;10.766;2023-05-23T02:00:51;95316.44;;;16.59;83.09
13407;BME280;6774;48.208;10.766;2023-05-23T02:03:19;95323.59;;;16.47;82.84
13407;BME280;6774;48.208;10.766;2023-05-23T02:05:48;95328.81;;;16.54;82.68
13407;BME280;6774;48.208;10.766;2023-05-23T02:08:16;95319.44;;;16.51;82.99
13407;BME280;6774;48.208;10.766;2023-05-23T02:10:43;95320.47;;;16.38;83.16
13407;BME280;6774;48.208;10.766;2023-05-23T02:13:11;95320.09;;;16.35;83.23
13407;BME280;6774;48.208;10.766;2023-05-23T02:15:39;95316.28;;;16.31;84.09
13407;BME280;6774;48.208;10.766;2023-05-23T02:18:08;95315.44;;;16.18;84.26
13407;BME280;6774;48.208;10.766;2023-05-23T02:20:40;95308.41;;;15.94;85.37
13407;BME280;6774;48.208;10.766;2023-05-23T02:23:08;95320.75;;;15.88;85.97
13407;BME280;6774;48.208;10.766;2023-05-23T02:25:37;95323.19;;;15.90;86.00
13407;BME280;6774;48.208;10.766;2023-05-23T02:28:05;95321.38;;;16.02;85.42
13407;BME280;6774;48.208;10.766;2023-05-23T02:30:33;95327.44;;;16.09;85.55
13407;BME280;6774;48.208;10.766;2023-05-23T02:33:03;95326.25;;;16.05;85.80
13407;BME280;6774;48.208;10.766;2023-05-23T02:35:33;95335.75;;;16.01;85.51
13407;BME280;6774;48.208;10.766;2023-05-23T02:38:01;95338.41;;;16.01;85.71
13407;BME280;6774;48.208;10.766;2023-05-23T02:40:29;95345.09;;;15.74;85.97
13407;BME280;6774;48.208;10.766;2023-05-23T02:42:57;95340.88;;;15.84;85.94
13407;BME280;6774;48.208;10.766;2023-05-23T02:45:24;95354.81;;;15.80;85.83
13407;BME280;6774;48.208;10.766;2023-05-23T02:47:52;95358.69;;;15.84;85.66
13407;BME280;6774;48.208;10.766;2023-05-23T02:50:20;95353.47;;;15.89;85.14
13407;BME280;6774;48.208;10.766;2023-05-23T02:52:49;95359.63;;;15.89;85.19
13407;BME280;6774;48.208;10.766;2023-05-23T02:55:18;95361.69;;;15.87;85.49
13407;BME280;6774;48.208;10.766;2023-05-23T02:57:48;95358.16;;;15.93;85.84
13407;BME280;6774;48.208;10.766;2023-05-23T03:00:17;95358.38;;;15.92;86.40
13407;BME280;6774;48.208;10.766;2023-05-23T03:02:49;95359.72;;;15.83;86.96
13407;BME280;6774;48.208;10.766;2023-05-23T03:05:17;95361.94;;;15.86;86.91
13407;BME280;6774;48.208;10.766;2023-05-23T03:07:45;95362.22;;;15.59;87.64
13407;BME280;6774;48.208;10.766;2023-05-23T03:10:15;95361.03;;;15.55;87.44
13407;BME280;6774;48.208;10.766;2023-05-23T03:12:43;95363.63;;;15.62;87.31
13407;BME280;6774;48.208;10.766;2023-05-23T03:15:12;95362.88;;;15.55;87.87
13407;BME280;6774;48.208;10.766;2023-05-23T03:17:42;95351.38;;;15.61;87.55
13407;BME280;6774;48.208;10.766;2023-05-23T03:20:10;95356.63;;;15.68;87.65
13407;BME280;6774;48.208;10.766;2023-05-23T03:22:38;95344.66;;;15.77;87.08
13407;BME280;6774;48.208;10.766;2023-05-23T03:25:09;95349.97;;;15.77;87.74
13407;BME280;6774;48.208;10.766;2023-05-23T03:27:38;95350.31;;;15.80;87.40
13407;BME280;6774;48.208;10.766;2023-05-23T03:30:07;95347.22;;;15.83;87.12
13407;BME280;6774;48.208;10.766;2023-05-23T03:32:35;95353.34;;;15.84;87.23
13407;BME280;6774;48.208;10.766;2023-05-23T03:35:04;95348.81;;;15.73;87.40
13407;BME280;6774;48.208;10.766;2023-05-23T03:37:32;95349.69;;;15.67;87.57
13407;BME280;6774;48.208;10.766;2023-05-23T03:40:00;95357.78;;;15.72;87.10
13407;BME280;6774;48.208;10.766;2023-05-23T03:42:29;95351.75;;;15.83;87.53
13407;BME280;6774;48.208;10.766;2023-05-23T03:44:58;95355.09;;;15.90;87.35
13407;BME280;6774;48.208;10.766;2023-05-23T03:47:26;95353.75;;;15.99;87.14
13407;BME280;6774;48.208;10.766;2023-05-23T03:49:56;95365.59;;;16.03;86.87
13407;BME280;6774;48.208;10.766;2023-05-23T03:52:26;95365.13;;;16.06;86.76
13407;BME280;6774;48.208;10.766;2023-05-23T03:54:54;95358.78;;;16.07;86.44
13407;BME280;6774;48.208;10.766;2023-05-23T03:57:22;95360.53;;;16.13;86.59
13407;BME280;6774;48.208;10.766;2023-05-23T03:59:50;95362.97;;;16.15;86.47
13407;BME280;6774;48.208;10.766;2023-05-23T04:02:20;95364.72;;;16.09;86.38
13407;BME280;6774;48.208;10.766;2023-05-23T04:04:48;95362.34;;;16.01;86.66
13407;BME280;6774;48.208;10.766;2023-05-23T04:07:17;95369.56;;;15.82;86.92
13407;BME280;6774;48.208;10.766;2023-05-23T04:09:45;95361.56;;;15.82;86.97
13407;BME280;6774;48.208;10.766;2023-05-23T04:12:13;95363.56;;;15.69;87.49
13407;BME280;6774;48.208;10.766;2023-05-23T04:14:41;95364.88;;;15.59;88.18
13407;BME280;6774;48.208;10.766;2023-05-23T04:17:10;95366.38;;;15.74;87.59
13407;BME280;6774;48.208;10.766;2023-05-23T04:19:39;95365.41;;;15.86;87.10
13407;BME280;6774;48.208;10.766;2023-05-23T04:22:08;95368.78;;;15.93;87.06
13407;BME280;6774;48.208;10.766;2023-05-23T04:24:36;95372.09;;;15.89;86.85
13407;BME280;6774;48.208;10.766;2023-05-23T04:27:05;95369.31;;;16.02;86.73
13407;BME280;6774;48.208;10.766;2023-05-23T04:29:33;95378.44;;;16.06;86.93
13407;BME280;6774;48.208;10.766;2023-05-23T04:32:01;95373.28;;;16.11;86.76
13407;BME280;6774;48.208;10.766;2023-05-23T04:34:29;95376.06;;;16.16;86.76
13407;BME280;6774;48.208;10.766;2023-05-23T04:37:01;95375.91;;;16.30;86.32
13407;BME280;6774;48.208;10.766;2023-05-23T04:39:29;95379.97;;;16.44;86.03
13407;BME280;6774;48.208;10.766;2023-05-23T04:42:16;95379.81;;;16.57;85.92
13407;BME280;6774;48.208;10.766;2023-05-23T04:44:50;95379.81;;;16.57;85.78
13407;BME280;6774;48.208;10.766;2023-05-23T04:47:23;95383.56;;;16.80;85.49
13407;BME280;6774;48.208;10.766;2023-05-23T04:50:00;95384.63;;;16.90;85.32
13407;BME280;6774;48.208;10.766;2023-05-23T04:52:31;95378.03;;;16.93;85.27
13407;BME280;6774;48.208;10.766;2023-05-23T04:55:00;95383.94;;;16.95;85.30
13407;BME280;6774;48.208;10.766;2023-05-23T04:57:28;95384.19;;;17.05;85.15
13407;BME280;6774;48.208;10.766;2023-05-23T04:59:56;95396.25;;;17.08;85.00
13407;BME280;6774;48.208;10.766;2023-05-23T05:02:25;95396.72;;;17.16;84.76
13407;BME280;6774;48.208;10.766;2023-05-23T05:04:53;95413.38;;;17.00;85.55
13407;BME280;6774;48.208;10.766;2023-05-23T05:07:21;95401.47;;;17.02;86.46
13407;BME280;6774;48.208;10.766;2023-05-23T05:09:50;95406.66;;;17.09;86.71
13407;BME280;6774;48.208;10.766;2023-05-23T05:12:18;95414.31;;;16.94;87.46
13407;BME280;6774;48.208;10.766;2023-05-23T05:14:46;95414.69;;;16.67;88.52
13407;BME280;6774;48.208;10.766;2023-05-23T05:17:14;95416.66;;;17.02;87.29
13407;BME280;6774;48.208;10.766;2023-05-23T05:20:01;95417.59;;;17.19;86.46
13407;BME280;6774;48.208;10.766;2023-05-23T05:22:33;95417.13;;;17.22;87.09
13407;BME280;6774;48.208;10.766;2023-05-23T05:25:04;95422.56;;;17.16;86.77
13407;BME280;6774;48.208;10.766;2023-05-23T05:27:33;95424.09;;;17.23;86.98
13407;BME280;6774;48.208;10.766;2023-05-23T05:30:06;95427.50;;;16.89;88.42
13407;BME280;6774;48.208;10.766;2023-05-23T05:32:49;95421.03;;;16.85;88.78
13407;BME280;6774;48.208;10.766;2023-05-23T05:35:17;95430.19;;;17.00;88.66
13407;BME280;6774;48.208;10.766;2023-05-23T05:37:45;95421.28;;;16.95;88.80
13407;BME280;6774;48.208;10.766;2023-05-23T05:40:15;95422.91;;;17.08;88.90
13407;BME280;6774;48.208;10.766;2023-05-23T05:42:43;95427.56;;;17.12;87.90
13407;BME280;6774;48.208;10.766;2023-05-23T05:45:11;95421.50;;;17.05;88.66
13407;BME280;6774;48.208;10.766;2023-05-23T05:47:41;95425.69;;;17.01;89.03
13407;BME280;6774;48.208;10.766;2023-05-23T05:50:09;95432.91;;;17.12;88.96
13407;BME280;6774;48.208;10.766;2023-05-23T05:52:37;95439.94;;;17.18;88.25
13407;BME280;6774;48.208;10.766;2023-05-23T05:55:06;95421.06;;;17.31;88.43
13407;BME280;6774;48.208;10.766;2023-05-23T05:57:39;95424.22;;;17.40;89.04
13407;BME280;6774;48.208;10.766;2023-05-23T06:00:09;95427.78;;;17.46;87.34
13407;BME280;6774;48.208;10.766;2023-05-23T06:02:49;95435.91;;;17.27;87.78
13407;BME280;6774;48.208;10.766;2023-05-23T06:05:32;95431.63;;;17.26;88.32
13407;BME280;6774;48.208;10.766;2023-05-23T06:08:00;95429.66;;;17.33;87.91
13407;BME280;6774;48.208;10.766;2023-05-23T06:10:28;95434.59;;;17.06;89.29
13407;BME280;6774;48.208;10.766;2023-05-23T06:12:58;95439.97;;;17.30;88.14
13407;BME280;6774;48.208;10.766;2023-05-23T06:15:26;95436.63;;;17.58;88.20
13407;BME280;6774;48.208;10.766;2023-05-23T06:17:54;95442.75;;;17.35;87.12
13407;BME280;6774;48.208;10.766;2023-05-23T06:20:23;95439.16;;;17.64;88.11
13407;BME280;6774;48.208;10.766;2023-05-23T06:22:52;95440.09;;;17.58;88.03
13407;BME280;6774;48.208;10.766;2023-05-23T06:25:19;95439.38;;;17.63;87.21
13407;BME280;6774;48.208;10.766;2023-05-23T06:27:47;95449.38;;;17.32;87.85
13407;BME280;6774;48.208;10.766;2023-05-23T06:30:17;95450.06;;;17.40;88.50
13407;BME280;6774;48.208;10.766;2023-05-23T06:32:44;95449.50;;;17.61;87.88
13407;BME280;6774;48.208;10.766;2023-05-23T06:35:12;95448.56;;;17.90;87.49
13407;BME280;6774;48.208;10.766;2023-05-23T06:37:40;95450.88;;;17.63;86.94
13407;BME280;6774;48.208;10.766;2023-05-23T06:40:11;95448.47;;;17.85;86.58
13407;BME280;6774;48.208;10.766;2023-05-23T06:42:39;95457.38;;;17.91;85.64
13407;BME280;6774;48.208;10.766;2023-05-23T06:45:23;95461.75;;;18.09;85.25
13407;BME280;6774;48.208;10.766;2023-05-23T06:47:50;95456.94;;;18.34;84.14
13407;BME280;6774;48.208;10.766;2023-05-23T06:50:18;95461.91;;;18.42;83.94
13407;BME280;6774;48.208;10.766;2023-05-23T06:52:48;95460.94;;;18.20;83.99
13407;BME280;6774;48.208;10.766;2023-05-23T06:55:16;95469.16;;;18.30;84.54
13407;BME280;6774;48.208;10.766;2023-05-23T06:57:47;95472.09;;;18.17;84.08
13407;BME280;6774;48.208;10.766;2023-05-23T07:00:19;95460.47;;;18.23;83.41
13407;BME280;6774;48.208;10.766;2023-05-23T07:03:01;95465.06;;;18.39;83.27
13407;BME280;6774;48.208;10.766;2023-05-23T07:05:29;95471.06;;;18.46;82.86
13407;BME280;6774;48.208;10.766;2023-05-23T07:07:59;95472.66;;;18.19;83.89
13407;BME280;6774;48.208;10.766;2023-05-23T07:10:27;95465.59;;;18.13;84.35
13407;BME280;6774;48.208;10.766;2023-05-23T07:13:02;95478.44;;;18.39;84.68
13407;BME280;6774;48.208;10.766;2023-05-23T07:15:30;95471.28;;;18.57;83.44
13407;BME280;6774;48.208;10.766;2023-05-23T07:18:08;95467.47;;;18.01;82.93
13407;BME280;6774;48.208;10.766;2023-05-23T07:20:36;95480.13;;;18.57;83.60
13407;BME280;6774;48.208;10.766;2023-05-23T07:23:12;95474.47;;;18.99;83.15
13407;BME280;6774;48.208;10.766;2023-05-23T07:25:40;95480.75;;;19.04;81.53
13407;BME280;6774;48.208;10.766;2023-05-23T07:28:31;95471.00;;;18.98;81.63
13407;BME280;6774;48.208;10.766;2023-05-23T07:30:58;95469.75;;;18.89;81.26
13407;BME280;6774;48.208;10.766;2023-05-23T07:33:28;95468.22;;;19.39;81.04
13407;BME280;6774;48.208;10.766;2023-05-23T07:36:01;95475.00;;;19.13;80.39
13407;BME280;6774;48.208;10.766;2023-05-23T07:38:29;95476.28;;;19.10;80.34
13407;BME280;6774;48.208;10.766;2023-05-23T07:40:57;95471.72;;;19.11;80.15
13407;BME280;6774;48.208;10.766;2023-05-23T07:43:37;95476.03;;;18.95;80.97
13407;BME280;6774;48.208;10.766;2023-05-23T07:46:06;95463.97;;;19.26;78.98
13407;BME280;6774;48.208;10.766;2023-05-23T07:48:36;95475.50;;;19.43;80.16
13407;BME280;6774;48.208;10.766;2023-05-23T07:51:05;95469.53;;;18.91;81.38
13407;BME280;6774;48.208;10.766;2023-05-23T07:53:33;95466.03;;;18.90;80.30
13407;BME280;6774;48.208;10.766;2023-05-23T07:56:08;95465.97;;;19.19;80.46
13407;BME280;6774;48.208;10.766;2023-05-23T07:58:39;95471.78;;;20.00;78.47
13407;BME280;6774;48.208;10.766;2023-05-23T08:01:07;95464.13;;;19.86;78.73
13407;BME280;6774;48.208;10.766;2023-05-23T08:03:56;95465.59;;;19.44;78.49
13407;BME280;6774;48.208;10.766;2023-05-23T08:06:30;95470.47;;;19.80;78.83
13407;BME280;6774;48.208;10.766;2023-05-23T08:09:03;95459.22;;;19.62;78.93
13407;BME280;6774;48.208;10.766;2023-05-23T08:11:35;95472.72;;;19.38;79.55
13407;BME280;6774;48.208;10.766;2023-05-23T08:14:05;95467.88;;;19.52;79.62
13407;BME280;6774;48.208;10.766;2023-05-23T08:16:35;95476.47;;;19.54;79.17
13407;BME280;6774;48.208;10.766;2023-05-23T08:19:16;95471.59;;;19.34;78.81
13407;BME280;6774;48.208;10.766;2023-05-23T08:21:45;95472.91;;;19.48;79.53
13407;BME280;6774;48.208;10.766;2023-05-23T08:24:13;95474.34;;;19.73;79.07
13407;BME280;6774;48.208;10.766;2023-05-23T08:26:42;95473.50;;;19.67;78.38
13407;BME280;6774;48.208;10.766;2023-05-23T08:29:12;95469.34;;;19.59;80.04
13407;BME280;6774;48.208;10.766;2023-05-23T08:31:41;95475.66;;;19.87;78.71
13407;BME280;6774;48.208;10.766;2023-05-23T08:34:10;95479.88;;;19.49;79.20
13407;BME280;6774;48.208;10.766;2023-05-23T08:36:42;95474.22;;;19.63;79.20
13407;BME280;6774;48.208;10.766;2023-05-23T08:39:14;95478.56;;;19.35;78.87
13407;BME280;6774;48.208;10.766;2023-05-23T08:41:49;95483.13;;;19.35;80.52
13407;BME280;6774;48.208;10.766;2023-05-23T08:44:17;95481.06;;;19.25;80.39
13407;BME280;6774;48.208;10.766;2023-05-23T08:46:52;95480.91;;;19.82;79.29
13407;BME280;6774;48.208;10.766;2023-05-23T08:49:38;95488.31;;;19.75;79.42
13407;BME280;6774;48.208;10.766;2023-05-23T08:52:11;95491.28;;;19.28;80.21
13407;BME280;6774;48.208;10.766;2023-05-23T08:54:42;95492.50;;;19.37;80.16
13407;BME280;6774;48.208;10.766;2023-05-23T08:57:12;95487.81;;;19.44;80.82
13407;BME280;6774;48.208;10.766;2023-05-23T08:59:46;95496.59;;;19.56;79.47
13407;BME280;6774;48.208;10.766;2023-05-23T09:02:15;95501.13;;;19.39;79.60
13407;BME280;6774;48.208;10.766;2023-05-23T09:04:45;95499.66;;;19.82;78.43
13407;BME280;6774;48.208;10.766;2023-05-23T09:07:18;95504.53;;;19.51;78.25
13407;BME280;6774;48.208;10.766;2023-05-23T09:09:48;95505.38;;;19.69;79.06
13407;BME280;6774;48.208;10.766;2023-05-23T09:12:16;95503.91;;;19.78;77.51
13407;BME280;6774;48.208;10.766;2023-05-23T09:14:49;95513.44;;;19.40;79.40
13407;BME280;6774;48.208;10.766;2023-05-23T09:17:19;95514.25;;;19.91;78.92
13407;BME280;6774;48.208;10.766;2023-05-23T09:19:49;95511.81;;;20.06;77.25
13407;BME280;6774;48.208;10.766;2023-05-23T09:22:27;95510.31;;;20.15;76.07
13407;BME280;6774;48.208;10.766;2023-05-23T09:25:07;95514.88;;;20.15;77.93
13407;BME280;6774;48.208;10.766;2023-05-23T09:27:37;95517.56;;;20.37;77.16
13407;BME280;6774;48.208;10.766;2023-05-23T09:30:07;95513.44;;;20.29;76.71
13407;BME280;6774;48.208;10.766;2023-05-23T09:32:35;95510.59;;;20.36;75.99
13407;BME280;6774;48.208;10.766;2023-05-23T09:35:05;95511.41;;;20.36;76.21
13407;BME280;6774;48.208;10.766;2023-05-23T09:37:43;95508.78;;;20.58;75.20
13407;BME280;6774;48.208;10.766;2023-05-23T09:40:13;95516.66;;;20.70;74.06
13407;BME280;6774;48.208;10.766;2023-05-23T09:42:50;95506.69;;;21.14;73.43
13407;BME280;6774;48.208;10.766;2023-05-23T09:45:17;95507.59;;;21.52;75.27
13407;BME280;6774;48.208;10.766;2023-05-23T09:47:48;95507.53;;;22.16;73.84
13407;BME280;6774;48.208;10.766;2023-05-23T09:50:16;95520.16;;;21.78;71.13
13407;BME280;6774;48.208;10.766;2023-05-23T09:52:46;95517.47;;;21.78;69.91
13407;BME280;6774;48.208;10.766;2023-05-23T09:55:14;95515.84;;;21.77;72.28
13407;BME280;6774;48.208;10.766;2023-05-23T09:57:42;95514.97;;;22.04;72.54
13407;BME280;6774;48.208;10.766;2023-05-23T10:00:14;95517.78;;;22.24;72.33
13407;BME280;6774;48.208;10.766;2023-05-23T10:03:04;95511.47;;;22.56;70.10
13407;BME280;6774;48.208;10.766;2023-05-23T10:05:37;95511.94;;;22.37;69.41
13407;BME280;6774;48.208;10.766;2023-05-23T10:08:11;95507.72;;;21.67;72.67
13407;BME280;6774;48.208;10.766;2023-05-23T10:11:22;95510.69;;;21.71;71.31
13407;BME280;6774;48.208;10.766;2023-05-23T10:14:05;95500.63;;;21.93;71.20
13407;BME280;6774;48.208;10.766;2023-05-23T10:16:38;95492.75;;;21.81;71.54
13407;BME280;6774;48.208;10.766;2023-05-23T10:19:14;95492.53;;;22.30;71.46
13407;BME280;6774;48.208;10.766;2023-05-23T10:21:49;95485.34;;;23.24;70.12
13407;BME280;6774;48.208;10.766;2023-05-23T10:24:19;95478.63;;;23.67;67.17
13407;BME280;6774;48.208;10.766;2023-05-23T10:26:47;95479.59;;;24.37;65.15
13407;BME280;6774;48.208;10.766;2023-05-23T10:29:15;95481.13;;;25.18;63.89
13407;BME280;6774;48.208;10.766;2023-05-23T10:31:43;95483.72;;;25.34;59.96
13407;BME280;6774;48.208;10.766;2023-05-23T10:34:20;95480.78;;;23.80;63.66
13407;BME280;6774;48.208;10.766;2023-05-23T10:36:56;95478.31;;;23.13;66.35
13407;BME280;6774;48.208;10.766;2023-05-23T10:39:50;95479.13;;;22.35;67.58
13407;BME280;6774;48.208;10.766;2023-05-23T10:42:32;95472.78;;;22.62;67.94
13407;BME280;6774;48.208;10.766;2023-05-23T10:45:18;95468.63;;;23.37;66.74
13407;BME280;6774;48.208;10.766;2023-05-23T10:47:47;95477.25;;;23.39;64.12
13407;BME280;6774;48.208;10.766;2023-05-23T10:50:30;95476.19;;;23.35;65.29
13407;BME280;6774;48.208;10.766;2023-05-23T10:52:59;95475.63;;;23.59;61.93
13407;BME280;6774;48.208;10.766;2023-05-23T10:55:32;95475.09;;;23.92;63.04
13407;BME280;6774;48.208;10.766;2023-05-23T10:58:14;95465.34;;;24.17;61.98
13407;BME280;6774;48.208;10.766;2023-05-23T11:00:50;95468.53;;;24.99;59.39
13407;BME280;6774;48.208;10.766;2023-05-23T11:03:29;95461.47;;;24.48;60.11
13407;BME280;6774;48.208;10.766;2023-05-23T11:05:59;95477.63;;;24.58;61.71
13407;BME280;6774;48.208;10.766;2023-05-23T11:08:35;95474.91;;;24.58;58.76
13407;BME280;6774;48.208;10.766;2023-05-23T11:11:14;95474.09;;;25.17;58.65
13407;BME280;6774;48.208;10.766;2023-05-23T11:13:56;95481.75;;;24.30;60.11
13407;BME280;6774;48.208;10.766;2023-05-23T11:16:27;95487.50;;;23.42;61.74
13407;BME280;6774;48.208;10.766;2023-05-23T11:19:23;95484.25;;;23.30;65.64
13407;BME280;6774;48.208;10.766;2023-05-23T11:21:56;95480.50;;;23.46;63.70
13407;BME280;6774;48.208;10.766;2023-05-23T11:24:48;95477.31;;;23.60;63.53
13407;BME280;6774;48.208;10.766;2023-05-23T11:27:25;95475.66;;;23.89;63.52
13407;BME280;6774;48.208;10.766;2023-05-23T11:29:57;95476.09;;;24.37;60.63
13407;BME280;6774;48.208;10.766;2023-05-23T11:32:29;95474.22;;;24.92;57.73
13407;BME280;6774;48.208;10.766;2023-05-23T11:34:58;95465.31;;;24.42;59.51
13407;BME280;6774;48.208;10.766;2023-05-23T11:37:27;95470.25;;;23.94;59.06
13407;BME280;6774;48.208;10.766;2023-05-23T11:39:55;95467.03;;;23.77;60.76
13407;BME280;6774;48.208;10.766;2023-05-23T11:42:24;95460.00;;;23.05;61.25
13407;BME280;6774;48.208;10.766;2023-05-23T11:44:52;95460.00;;;23.86;59.64
13407;BME280;6774;48.208;10.766;2023-05-23T11:47:20;95443.84;;;23.30;63.32
13407;BME280;6774;48.208;10.766;2023-05-23T11:49:48;95440.09;;;23.51;61.32
13407;BME280;6774;48.208;10.766;2023-05-23T11:52:15;95435.72;;;24.06;61.13
13407;BME280;6774;48.208;10.766;2023-05-23T11:54:43;95432.31;;;24.60;60.91
13407;BME280;6774;48.208;10.766;2023-05-23T11:57:12;95436.31;;;23.68;60.65
13407;BME280;6774;48.208;10.766;2023-05-23T11:59:41;95444.69;;;23.66;61.60
13407;BME280;6774;48.208;10.766;2023-05-23T12:02:09;95432.00;;;23.31;61.97
13407;BME280;6774;48.208;10.766;2023-05-23T12:04:37;95434.69;;;23.87;60.26
13407;BME280;6774;48.208;10.766;2023-05-23T12:07:05;95432.94;;;24.27;57.50
13407;BME280;6774;48.208;10.766;2023-05-23T12:09:41;95426.91;;;24.55;57.96
13407;BME280;6774;48.208;10.766;2023-05-23T12:12:09;95433.03;;;24.01;59.42
13407;BME280;6774;48.208;10.766;2023-05-23T12:14:37;95427.13;;;23.99;60.27
13407;BME280;6774;48.208;10.766;2023-05-23T12:17:12;95425.88;;;24.51;61.79
13407;BME280;6774;48.208;10.766;2023-05-23T12:19:44;95429.66;;;24.94;61.19
13407;BME280;6774;48.208;10.766;2023-05-23T12:22:13;95437.59;;;24.76;60.77
13407;BME280;6774;48.208;10.766;2023-05-23T12:24:44;95439.78;;;24.68;60.41
13407;BME280;6774;48.208;10.766;2023-05-23T12:27:12;95445.19;;;24.68;59.11
13407;BME280;6774;48.208;10.766;2023-05-23T12:29:40;95445.69;;;24.76;59.88
13407;BME280;6774;48.208;10.766;2023-05-23T12:32:08;95442.31;;;24.55;59.94
13407;BME280;6774;48.208;10.766;2023-05-23T12:34:41;95443.59;;;23.42;60.35
13407;BME280;6774;48.208;10.766;2023-05-23T12:37:12;95459.19;;;24.06;62.11
13407;BME280;6774;48.208;10.766;2023-05-23T12:39:42;95454.66;;;23.25;61.43
13407;BME280;6774;48.208;10.766;2023-05-23T12:42:11;95469.97;;;23.14;64.17
13407;BME280;6774;48.208;10.766;2023-05-23T12:44:40;95460.84;;;23.36;64.89
13407;BME280;6774;48.208;10.766;2023-05-23T12:47:08;95459.50;;;23.33;64.29
13407;BME280;6774;48.208;10.766;2023-05-23T12:49:37;95464.34;;;23.82;63.54
13407;BME280;6774;48.208;10.766;2023-05-23T12:52:06;95462.59;;;24.42;62.69
13407;BME280;6774;48.208;10.766;2023-05-23T12:54:34;95462.34;;;24.93;59.85
13407;BME280;6774;48.208;10.766;2023-05-23T12:57:02;95455.84;;;24.99;57.06
13407;BME280;6774;48.208;10.766;2023-05-23T12:59:29;95456.31;;;25.11;55.51
13407;BME280;6774;48.208;10.766;2023-05-23T13:01:57;95455.44;;;24.72;56.97
13407;BME280;6774;48.208;10.766;2023-05-23T13:04:25;95458.03;;;24.92;55.89
13407;BME280;6774;48.208;10.766;2023-05-23T13:06:57;95460.00;;;25.26;57.00
13407;BME280;6774;48.208;10.766;2023-05-23T13:09:26;95447.44;;;25.45;55.52
13407;BME280;6774;48.208;10.766;2023-05-23T13:11:54;95444.53;;;25.70;56.21
13407;BME280;6774;48.208;10.766;2023-05-23T13:14:22;95446.91;;;25.04;57.20
13407;BME280;6774;48.208;10.766;2023-05-23T13:16:50;95454.28;;;24.88;58.10
13407;BME280;6774;48.208;10.766;2023-05-23T13:19:18;95448.06;;;24.33;61.08
13407;BME280;6774;48.208;10.766;2023-05-23T13:21:46;95449.16;;;24.17;60.99